Terminal Aerodrome Forecast
Issued by NWS Charleston, SC

Home | Current Version | Previous Version | Text Only | Print | Product List | Glossary On
Versions: 1 2 3 4 5 6 7 8 9 10 11 12 13 14 15 16 17 18 19 20 21 22 23 24 25 26
000
FTUS42 KCHS 161700
TAFCHS
TAF
KCHS 161739Z 1618/1718 07012G17KT P6SM SKC
     FM162300 06010KT P6SM SCT035
     FM170600 02012KT P6SM SCT030
     FM170900 04013G19KT P6SM SCT025 SCT050=

USA.gov is the U.S. government's official web portal to all federal, state and local government web resources and services.